2017-06-26 - 03:36:00

SR: 0310 - SS: 1954

RWY: 25


OBSERVATION: n/a

RVR Mean 1 min: (Runway Visual Range)
A: P2000 - B: P2000 - C: P2000
RVR Mean 10 min:
A: P2000 - B: P2000 - C: P2000
WARNING: n/a
W25: 240-270(260-03kt) 03kt-05kt
W07: 240-300(260-02kt) 02kt-04kt
OTHER: n/a

QFE: (tats�chlicher Luftdruck) 1005.1 hPa = 29.67 inHg
QNH:(Luftdruck auf Meeresh�he) 1010.9 hPa = 29.82 inHg
Temperatur: 14.8 �C
Dew point(Taupunkt): 14.1 �C

METAR:  00609 SADL31 EDDG 260320 METAR EDDG 260320Z 27003KT 9999 -RA SCT025 BKN050 15/14 Q1010 NOSIG= 
METAR (aus weather.noaa.gov):
2017/06/26 03:20 EDDG 260320Z 27003KT 9999 -RA SCT025 BKN050 15/14 Q1010 NOSIG

TAF (aus weather.noaa.gov):
2017/06/25 18:27 TAF EDDG 251700Z 2518/2618 25008KT 9999 BKN040 TEMPO 2603/2606 BKN012